sensor_id;sensor_type;location;lat;lon;timestamp;P1;durP1;ratioP1;P2;durP2;ratioP2
64367;SDS011;50692;53.314;-6.300;2022-11-12T00:01:34;0.38;;;0.38;;
64367;SDS011;50692;53.314;-6.300;2022-11-12T00:04:20;1.13;;;0.80;;
64367;SDS011;50692;53.314;-6.300;2022-11-12T00:07:06;0.55;;;0.47;;
64367;SDS011;50692;53.314;-6.300;2022-11-12T00:09:52;0.63;;;0.40;;
64367;SDS011;50692;53.314;-6.300;2022-11-12T00:12:38;1.35;;;1.00;;
64367;SDS011;50692;53.314;-6.300;2022-11-12T00:15:24;1.35;;;0.90;;
64367;SDS011;50692;53.314;-6.300;2022-11-12T00:18:10;1.30;;;1.17;;
64367;SDS011;50692;53.314;-6.300;2022-11-12T00:20:56;1.10;;;0.60;;
64367;SDS011;50692;53.314;-6.300;2022-11-12T00:23:42;0.60;;;0.60;;
64367;SDS011;50692;53.314;-6.300;2022-11-12T00:26:28;1.45;;;1.17;;
64367;SDS011;50692;53.314;-6.300;2022-11-12T00:29:13;4.15;;;3.72;;
64367;SDS011;50692;53.314;-6.300;2022-11-12T00:31:59;0.70;;;0.70;;
64367;SDS011;50692;53.314;-6.300;2022-11-12T00:34:45;0.47;;;0.47;;
64367;SDS011;50692;53.314;-6.300;2022-11-12T00:37:31;1.10;;;1.00;;
64367;SDS011;50692;53.314;-6.300;2022-11-12T00:40:17;0.93;;;0.77;;
64367;SDS011;50692;53.314;-6.300;2022-11-12T00:43:02;0.70;;;0.60;;
64367;SDS011;50692;53.314;-6.300;2022-11-12T00:45:48;0.43;;;0.43;;
64367;SDS011;50692;53.314;-6.300;2022-11-12T00:48:34;0.30;;;0.30;;
64367;SDS011;50692;53.314;-6.300;2022-11-12T00:51:20;0.20;;;0.20;;
64367;SDS011;50692;53.314;-6.300;2022-11-12T00:54:06;0.65;;;0.50;;
64367;SDS011;50692;53.314;-6.300;2022-11-12T00:56:52;0.50;;;0.50;;
64367;SDS011;50692;53.314;-6.300;2022-11-12T00:59:37;2.15;;;1.50;;
64367;SDS011;50692;53.314;-6.300;2022-11-12T01:02:23;0.38;;;0.38;;
64367;SDS011;50692;53.314;-6.300;2022-11-12T01:05:09;2.20;;;1.92;;
64367;SDS011;50692;53.314;-6.300;2022-11-12T01:07:55;1.27;;;0.40;;
64367;SDS011;50692;53.314;-6.300;2022-11-12T01:10:41;2.97;;;2.10;;
64367;SDS011;50692;53.314;-6.300;2022-11-12T01:13:27;2.42;;;0.95;;
64367;SDS011;50692;53.314;-6.300;2022-11-12T01:16:17;2.42;;;1.48;;
64367;SDS011;50692;53.314;-6.300;2022-11-12T01:19:07;2.15;;;0.80;;
64367;SDS011;50692;53.314;-6.300;2022-11-12T01:21:55;1.67;;;1.17;;
64367;SDS011;50692;53.314;-6.300;2022-11-12T01:24:40;2.60;;;0.50;;
64367;SDS011;50692;53.314;-6.300;2022-11-12T01:27:26;1.08;;;0.68;;
64367;SDS011;50692;53.314;-6.300;2022-11-12T01:30:12;1.10;;;0.82;;
64367;SDS011;50692;53.314;-6.300;2022-11-12T01:32:58;0.68;;;0.43;;
64367;SDS011;50692;53.314;-6.300;2022-11-12T01:35:44;0.57;;;0.40;;
64367;SDS011;50692;53.314;-6.300;2022-11-12T01:38:32;1.30;;;0.50;;
64367;SDS011;50692;53.314;-6.300;2022-11-12T01:41:23;0.45;;;0.40;;
64367;SDS011;50692;53.314;-6.300;2022-11-12T01:44:16;1.27;;;0.40;;
64367;SDS011;50692;53.314;-6.300;2022-11-12T01:47:16;0.68;;;0.43;;
64367;SDS011;50692;53.314;-6.300;2022-11-12T01:53:07;1.00;;;0.60;;
64367;SDS011;50692;53.314;-6.300;2022-11-12T01:55:56;0.85;;;0.40;;
64367;SDS011;50692;53.314;-6.300;2022-11-12T01:58:44;0.43;;;0.28;;
64367;SDS011;50692;53.314;-6.300;2022-11-12T02:01:33;2.87;;;0.53;;
64367;SDS011;50692;53.314;-6.300;2022-11-12T02:04:20;0.70;;;0.60;;
64367;SDS011;50692;53.314;-6.300;2022-11-12T02:07:07;0.88;;;0.40;;
64367;SDS011;50692;53.314;-6.300;2022-11-12T02:09:54;1.13;;;0.60;;
64367;SDS011;50692;53.314;-6.300;2022-11-12T02:12:41;4.13;;;0.98;;
64367;SDS011;50692;53.314;-6.300;2022-11-12T02:15:46;0.93;;;0.50;;
64367;SDS011;50692;53.314;-6.300;2022-11-12T02:18:31;1.00;;;0.75;;
64367;SDS011;50692;53.314;-6.300;2022-11-12T02:21:18;1.15;;;0.60;;
64367;SDS011;50692;53.314;-6.300;2022-11-12T02:24:29;2.25;;;0.98;;
64367;SDS011;50692;53.314;-6.300;2022-11-12T02:27:11;3.63;;;0.73;;
64367;SDS011;50692;53.314;-6.300;2022-11-12T02:29:57;2.38;;;0.88;;
64367;SDS011;50692;53.314;-6.300;2022-11-12T02:32:43;1.65;;;0.80;;
64367;SDS011;50692;53.314;-6.300;2022-11-12T02:35:29;2.85;;;0.80;;
64367;SDS011;50692;53.314;-6.300;2022-11-12T02:38:15;2.40;;;0.77;;
64367;SDS011;50692;53.314;-6.300;2022-11-12T02:41:01;1.60;;;0.90;;
64367;SDS011;50692;53.314;-6.300;2022-11-12T02:43:47;1.73;;;0.95;;
64367;SDS011;50692;53.314;-6.300;2022-11-12T02:46:33;0.82;;;0.60;;
64367;SDS011;50692;53.314;-6.300;2022-11-12T02:49:19;2.22;;;0.90;;
64367;SDS011;50692;53.314;-6.300;2022-11-12T02:52:05;0.70;;;0.50;;
64367;SDS011;50692;53.314;-6.300;2022-11-12T02:54:51;1.42;;;0.90;;
64367;SDS011;50692;53.314;-6.300;2022-11-12T02:57:37;0.75;;;0.60;;
64367;SDS011;50692;53.314;-6.300;2022-11-12T03:00:24;1.20;;;0.80;;
64367;SDS011;50692;53.314;-6.300;2022-11-12T03:03:10;2.58;;;0.68;;
64367;SDS011;50692;53.314;-6.300;2022-11-12T03:05:57;0.60;;;0.50;;
64367;SDS011;50692;53.314;-6.300;2022-11-12T03:08:44;1.38;;;0.60;;
64367;SDS011;50692;53.314;-6.300;2022-11-12T03:11:30;1.23;;;0.60;;
64367;SDS011;50692;53.314;-6.300;2022-11-12T03:14:16;0.98;;;0.65;;
64367;SDS011;50692;53.314;-6.300;2022-11-12T03:17:02;2.15;;;0.70;;
64367;SDS011;50692;53.314;-6.300;2022-11-12T03:19:48;0.85;;;0.57;;
64367;SDS011;50692;53.314;-6.300;2022-11-12T03:22:34;3.28;;;0.98;;
64367;SDS011;50692;53.314;-6.300;2022-11-12T03:25:20;2.03;;;1.02;;
64367;SDS011;50692;53.314;-6.300;2022-11-12T03:28:07;2.03;;;0.65;;
64367;SDS011;50692;53.314;-6.300;2022-11-12T03:30:55;1.65;;;0.98;;
64367;SDS011;50692;53.314;-6.300;2022-11-12T03:33:43;2.38;;;1.10;;
64367;SDS011;50692;53.314;-6.300;2022-11-12T03:36:29;2.47;;;0.98;;
64367;SDS011;50692;53.314;-6.300;2022-11-12T03:39:14;4.68;;;1.10;;
64367;SDS011;50692;53.314;-6.300;2022-11-12T03:42:00;2.60;;;0.90;;
64367;SDS011;50692;53.314;-6.300;2022-11-12T03:44:47;4.47;;;1.40;;
64367;SDS011;50692;53.314;-6.300;2022-11-12T03:47:32;2.53;;;1.27;;
64367;SDS011;50692;53.314;-6.300;2022-11-12T03:50:19;3.90;;;1.10;;
64367;SDS011;50692;53.314;-6.300;2022-11-12T03:53:07;2.20;;;1.00;;
64367;SDS011;50692;53.314;-6.300;2022-11-12T03:55:53;2.38;;;1.00;;
64367;SDS011;50692;53.314;-6.300;2022-11-12T03:58:39;1.65;;;1.00;;
64367;SDS011;50692;53.314;-6.300;2022-11-12T04:01:24;2.92;;;1.30;;
64367;SDS011;50692;53.314;-6.300;2022-11-12T04:04:10;2.90;;;1.27;;
64367;SDS011;50692;53.314;-6.300;2022-11-12T04:06:56;3.50;;;1.65;;
64367;SDS011;50692;53.314;-6.300;2022-11-12T04:10:01;3.55;;;1.30;;
64367;SDS011;50692;53.314;-6.300;2022-11-12T04:12:46;3.55;;;1.10;;
64367;SDS011;50692;53.314;-6.300;2022-11-12T04:15:51;2.40;;;0.90;;
64367;SDS011;50692;53.314;-6.300;2022-11-12T04:18:55;2.78;;;1.17;;
64367;SDS011;50692;53.314;-6.300;2022-11-12T04:22:03;1.60;;;1.05;;
64367;SDS011;50692;53.314;-6.300;2022-11-12T04:24:51;2.65;;;1.15;;
64367;SDS011;50692;53.314;-6.300;2022-11-12T04:27:55;2.45;;;1.10;;
64367;SDS011;50692;53.314;-6.300;2022-11-12T04:30:41;1.98;;;0.90;;
64367;SDS011;50692;53.314;-6.300;2022-11-12T04:33:27;3.63;;;1.20;;
64367;SDS011;50692;53.314;-6.300;2022-11-12T04:36:12;3.65;;;1.25;;
64367;SDS011;50692;53.314;-6.300;2022-11-12T04:38:58;3.75;;;1.30;;
64367;SDS011;50692;53.314;-6.300;2022-11-12T04:41:44;2.13;;;1.20;;
64367;SDS011;50692;53.314;-6.300;2022-11-12T04:44:48;4.78;;;1.05;;
64367;SDS011;50692;53.314;-6.300;2022-11-12T04:48:01;1.98;;;1.23;;
64367;SDS011;50692;53.314;-6.300;2022-11-12T04:50:48;2.05;;;1.08;;
64367;SDS011;50692;53.314;-6.300;2022-11-12T04:53:38;3.08;;;1.17;;
64367;SDS011;50692;53.314;-6.300;2022-11-12T04:56:23;3.88;;;1.20;;
64367;SDS011;50692;53.314;-6.300;2022-11-12T04:59:09;2.55;;;1.63;;
64367;SDS011;50692;53.314;-6.300;2022-11-12T05:01:55;4.10;;;1.50;;
64367;SDS011;50692;53.314;-6.300;2022-11-12T05:04:41;4.15;;;1.52;;
64367;SDS011;50692;53.314;-6.300;2022-11-12T05:07:27;4.55;;;1.30;;
64367;SDS011;50692;53.314;-6.300;2022-11-12T05:10:13;4.53;;;1.30;;
64367;SDS011;50692;53.314;-6.300;2022-11-12T05:12:59;3.13;;;1.40;;
64367;SDS011;50692;53.314;-6.300;2022-11-12T05:15:45;2.35;;;1.23;;
64367;SDS011;50692;53.314;-6.300;2022-11-12T05:18:31;3.22;;;1.40;;
64367;SDS011;50692;53.314;-6.300;2022-11-12T05:21:16;4.53;;;1.80;;
64367;SDS011;50692;53.314;-6.300;2022-11-12T05:24:26;2.20;;;1.33;;
64367;SDS011;50692;53.314;-6.300;2022-11-12T05:27:13;2.03;;;0.95;;
64367;SDS011;50692;53.314;-6.300;2022-11-12T05:30:05;3.20;;;1.27;;
64367;SDS011;50692;53.314;-6.300;2022-11-12T05:32:52;2.90;;;1.50;;
64367;SDS011;50692;53.314;-6.300;2022-11-12T05:35:38;2.78;;;1.40;;
64367;SDS011;50692;53.314;-6.300;2022-11-12T05:38:23;3.03;;;1.40;;
64367;SDS011;50692;53.314;-6.300;2022-11-12T05:41:09;3.10;;;1.25;;
64367;SDS011;50692;53.314;-6.300;2022-11-12T05:43:55;2.45;;;1.20;;
64367;SDS011;50692;53.314;-6.300;2022-11-12T05:46:41;3.20;;;1.33;;
64367;SDS011;50692;53.314;-6.300;2022-11-12T05:49:29;4.35;;;1.40;;
64367;SDS011;50692;53.314;-6.300;2022-11-12T05:52:15;4.05;;;1.15;;
64367;SDS011;50692;53.314;-6.300;2022-11-12T05:55:00;2.95;;;1.15;;
64367;SDS011;50692;53.314;-6.300;2022-11-12T05:57:46;3.15;;;1.05;;
64367;SDS011;50692;53.314;-6.300;2022-11-12T06:00:32;4.53;;;1.40;;
64367;SDS011;50692;53.314;-6.300;2022-11-12T06:03:23;3.60;;;1.63;;
64367;SDS011;50692;53.314;-6.300;2022-11-12T06:06:09;3.50;;;1.83;;
64367;SDS011;50692;53.314;-6.300;2022-11-12T06:08:55;3.38;;;1.50;;
64367;SDS011;50692;53.314;-6.300;2022-11-12T06:11:41;2.40;;;1.30;;
64367;SDS011;50692;53.314;-6.300;2022-11-12T06:14:27;3.03;;;1.45;;
64367;SDS011;50692;53.314;-6.300;2022-11-12T06:17:12;2.50;;;1.33;;
64367;SDS011;50692;53.314;-6.300;2022-11-12T06:19:58;2.22;;;1.30;;
64367;SDS011;50692;53.314;-6.300;2022-11-12T06:22:44;4.07;;;1.77;;
64367;SDS011;50692;53.314;-6.300;2022-11-12T06:25:30;4.35;;;1.50;;
64367;SDS011;50692;53.314;-6.300;2022-11-12T06:28:16;3.25;;;1.48;;
64367;SDS011;50692;53.314;-6.300;2022-11-12T06:31:02;3.08;;;0.98;;
64367;SDS011;50692;53.314;-6.300;2022-11-12T06:33:48;3.17;;;1.00;;
64367;SDS011;50692;53.314;-6.300;2022-11-12T06:36:34;1.75;;;0.93;;
64367;SDS011;50692;53.314;-6.300;2022-11-12T06:39:20;3.05;;;0.80;;
64367;SDS011;50692;53.314;-6.300;2022-11-12T06:42:06;1.27;;;0.43;;
64367;SDS011;50692;53.314;-6.300;2022-11-12T06:44:51;1.75;;;0.70;;
64367;SDS011;50692;53.314;-6.300;2022-11-12T06:47:37;1.63;;;0.68;;
64367;SDS011;50692;53.314;-6.300;2022-11-12T06:50:23;1.08;;;0.57;;
64367;SDS011;50692;53.314;-6.300;2022-11-12T06:53:09;1.67;;;1.08;;
64367;SDS011;50692;53.314;-6.300;2022-11-12T06:55:59;1.05;;;0.60;;
64367;SDS011;50692;53.314;-6.300;2022-11-12T06:58:46;1.95;;;0.70;;
64367;SDS011;50692;53.314;-6.300;2022-11-12T07:01:32;1.65;;;0.90;;
64367;SDS011;50692;53.314;-6.300;2022-11-12T07:04:17;1.50;;;0.70;;
64367;SDS011;50692;53.314;-6.300;2022-11-12T07:07:03;2.05;;;0.95;;
64367;SDS011;50692;53.314;-6.300;2022-11-12T07:09:49;0.98;;;0.90;;
64367;SDS011;50692;53.314;-6.300;2022-11-12T07:12:35;2.45;;;1.00;;
64367;SDS011;50692;53.314;-6.300;2022-11-12T07:15:21;1.77;;;1.23;;
64367;SDS011;50692;53.314;-6.300;2022-11-12T07:18:06;1.45;;;0.75;;
64367;SDS011;50692;53.314;-6.300;2022-11-12T07:21:02;2.95;;;1.17;;
64367;SDS011;50692;53.314;-6.300;2022-11-12T07:23:50;2.08;;;0.82;;
64367;SDS011;50692;53.314;-6.300;2022-11-12T07:26:36;1.30;;;0.90;;
64367;SDS011;50692;53.314;-6.300;2022-11-12T07:29:22;1.58;;;1.00;;
64367;SDS011;50692;53.314;-6.300;2022-11-12T07:32:08;1.42;;;0.60;;
64367;SDS011;50692;53.314;-6.300;2022-11-12T07:34:53;1.98;;;0.80;;
64367;SDS011;50692;53.314;-6.300;2022-11-12T07:37:39;1.30;;;0.80;;
64367;SDS011;50692;53.314;-6.300;2022-11-12T07:40:25;2.25;;;0.85;;
64367;SDS011;50692;53.314;-6.300;2022-11-12T07:43:11;4.82;;;1.88;;
64367;SDS011;50692;53.314;-6.300;2022-11-12T07:46:00;3.40;;;1.30;;
64367;SDS011;50692;53.314;-6.300;2022-11-12T07:48:49;2.95;;;1.20;;
64367;SDS011;50692;53.314;-6.300;2022-11-12T07:51:35;4.03;;;1.48;;
64367;SDS011;50692;53.314;-6.300;2022-11-12T07:54:21;4.07;;;1.30;;
64367;SDS011;50692;53.314;-6.300;2022-11-12T07:57:07;3.08;;;1.38;;
64367;SDS011;50692;53.314;-6.300;2022-11-12T07:59:53;2.47;;;1.50;;
64367;SDS011;50692;53.314;-6.300;2022-11-12T08:02:38;2.88;;;1.25;;
64367;SDS011;50692;53.314;-6.300;2022-11-12T08:05:24;4.80;;;1.50;;
64367;SDS011;50692;53.314;-6.300;2022-11-12T08:08:10;4.97;;;1.80;;
64367;SDS011;50692;53.314;-6.300;2022-11-12T08:10:56;2.05;;;1.30;;
64367;SDS011;50692;53.314;-6.300;2022-11-12T08:13:43;2.92;;;1.50;;
64367;SDS011;50692;53.314;-6.300;2022-11-12T08:16:29;3.97;;;1.75;;
64367;SDS011;50692;53.314;-6.300;2022-11-12T08:19:15;3.33;;;1.90;;
64367;SDS011;50692;53.314;-6.300;2022-11-12T08:22:01;3.97;;;1.85;;
64367;SDS011;50692;53.314;-6.300;2022-11-12T08:24:47;3.45;;;1.70;;
64367;SDS011;50692;53.314;-6.300;2022-11-12T08:27:32;3.38;;;1.50;;
64367;SDS011;50692;53.314;-6.300;2022-11-12T08:30:18;2.25;;;1.40;;
64367;SDS011;50692;53.314;-6.300;2022-11-12T08:33:04;7.07;;;1.50;;
64367;SDS011;50692;53.314;-6.300;2022-11-12T08:35:51;2.83;;;1.27;;
64367;SDS011;50692;53.314;-6.300;2022-11-12T08:38:37;4.20;;;1.50;;
64367;SDS011;50692;53.314;-6.300;2022-11-12T08:41:23;2.28;;;1.33;;
64367;SDS011;50692;53.314;-6.300;2022-11-12T08:44:09;3.03;;;1.23;;
64367;SDS011;50692;53.314;-6.300;2022-11-12T08:46:55;4.38;;;1.55;;
64367;SDS011;50692;53.314;-6.300;2022-11-12T08:49:40;3.25;;;1.42;;
64367;SDS011;50692;53.314;-6.300;2022-11-12T08:52:26;5.57;;;1.60;;
64367;SDS011;50692;53.314;-6.300;2022-11-12T08:55:12;3.10;;;1.63;;
64367;SDS011;50692;53.314;-6.300;2022-11-12T08:57:58;3.03;;;1.52;;
64367;SDS011;50692;53.314;-6.300;2022-11-12T09:00:46;3.33;;;1.38;;
64367;SDS011;50692;53.314;-6.300;2022-11-12T09:03:34;4.03;;;1.90;;
64367;SDS011;50692;53.314;-6.300;2022-11-12T09:06:20;3.10;;;1.77;;
64367;SDS011;50692;53.314;-6.300;2022-11-12T09:09:06;5.45;;;1.92;;
64367;SDS011;50692;53.314;-6.300;2022-11-12T09:11:51;4.47;;;1.83;;
64367;SDS011;50692;53.314;-6.300;2022-11-12T09:14:37;3.67;;;2.00;;
64367;SDS011;50692;53.314;-6.300;2022-11-12T09:17:23;6.40;;;2.00;;
64367;SDS011;50692;53.314;-6.300;2022-11-12T09:20:09;4.35;;;2.60;;
64367;SDS011;50692;53.314;-6.300;2022-11-12T09:22:58;4.72;;;2.13;;
64367;SDS011;50692;53.314;-6.300;2022-11-12T09:25:53;7.65;;;1.80;;
64367;SDS011;50692;53.314;-6.300;2022-11-12T09:28:41;3.42;;;1.50;;
64367;SDS011;50692;53.314;-6.300;2022-11-12T09:31:27;4.60;;;2.10;;
64367;SDS011;50692;53.314;-6.300;2022-11-12T09:34:13;4.68;;;2.10;;
64367;SDS011;50692;53.314;-6.300;2022-11-12T09:36:59;4.68;;;1.90;;
64367;SDS011;50692;53.314;-6.300;2022-11-12T09:39:44;4.47;;;2.00;;
64367;SDS011;50692;53.314;-6.300;2022-11-12T09:42:32;4.18;;;2.13;;
64367;SDS011;50692;53.314;-6.300;2022-11-12T09:45:22;2.45;;;1.60;;
64367;SDS011;50692;53.314;-6.300;2022-11-12T09:48:14;4.45;;;1.45;;
64367;SDS011;50692;53.314;-6.300;2022-11-12T09:51:15;4.70;;;1.75;;
64367;SDS011;50692;53.314;-6.300;2022-11-12T09:56:58;5.05;;;2.05;;
64367;SDS011;50692;53.314;-6.300;2022-11-12T09:59:43;2.45;;;1.58;;
64367;SDS011;50692;53.314;-6.300;2022-11-12T10:02:31;4.18;;;2.17;;
64367;SDS011;50692;53.314;-6.300;2022-11-12T10:11:32;3.53;;;1.63;;
64367;SDS011;50692;53.314;-6.300;2022-11-12T10:17:45;3.78;;;1.80;;
64367;SDS011;50692;53.314;-6.300;2022-11-12T10:20:45;3.35;;;1.75;;
64367;SDS011;50692;53.314;-6.300;2022-11-12T10:26:33;6.53;;;2.00;;
64367;SDS011;50692;53.314;-6.300;2022-11-12T10:29:27;3.00;;;1.90;;
64367;SDS011;50692;53.314;-6.300;2022-11-12T10:32:19;4.15;;;1.63;;
64367;SDS011;50692;53.314;-6.300;2022-11-12T10:35:05;3.67;;;1.60;;
64367;SDS011;50692;53.314;-6.300;2022-11-12T10:37:58;4.00;;;1.60;;
64367;SDS011;50692;53.314;-6.300;2022-11-12T10:40:47;2.42;;;1.30;;
64367;SDS011;50692;53.314;-6.300;2022-11-12T10:43:32;5.30;;;1.70;;
64367;SDS011;50692;53.314;-6.300;2022-11-12T10:46:21;5.32;;;1.50;;
64367;SDS011;50692;53.314;-6.300;2022-11-12T10:52:00;2.40;;;2.00;;
64367;SDS011;50692;53.314;-6.300;2022-11-12T10:54:46;5.53;;;1.60;;
64367;SDS011;50692;53.314;-6.300;2022-11-12T10:57:32;3.10;;;1.58;;
64367;SDS011;50692;53.314;-6.300;2022-11-12T11:00:19;4.10;;;2.15;;
64367;SDS011;50692;53.314;-6.300;2022-11-12T11:03:09;5.35;;;1.50;;
64367;SDS011;50692;53.314;-6.300;2022-11-12T11:09:14;5.20;;;1.70;;
64367;SDS011;50692;53.314;-6.300;2022-11-12T11:12:01;2.28;;;1.70;;
64367;SDS011;50692;53.314;-6.300;2022-11-12T11:14:47;5.07;;;1.92;;
64367;SDS011;50692;53.314;-6.300;2022-11-12T11:17:51;5.63;;;2.58;;
64367;SDS011;50692;53.314;-6.300;2022-11-12T11:20:46;5.03;;;1.80;;
64367;SDS011;50692;53.314;-6.300;2022-11-12T11:29:43;5.25;;;2.05;;
64367;SDS011;50692;53.314;-6.300;2022-11-12T11:41:35;3.92;;;1.80;;
64367;SDS011;50692;53.314;-6.300;2022-11-12T11:44:45;5.25;;;1.88;;
64367;SDS011;50692;53.314;-6.300;2022-11-12T11:50:49;4.25;;;1.70;;
64367;SDS011;50692;53.314;-6.300;2022-11-12T11:53:53;2.63;;;1.85;;
64367;SDS011;50692;53.314;-6.300;2022-11-12T11:56:46;3.45;;;1.70;;
64367;SDS011;50692;53.314;-6.300;2022-11-12T11:59:39;5.28;;;2.10;;
64367;SDS011;50692;53.314;-6.300;2022-11-12T12:21:16;5.57;;;2.22;;
64367;SDS011;50692;53.314;-6.300;2022-11-12T12:24:05;4.80;;;2.55;;
64367;SDS011;50692;53.314;-6.300;2022-11-12T12:27:20;4.53;;;1.95;;
64367;SDS011;50692;53.314;-6.300;2022-11-12T12:35:55;5.03;;;1.95;;
64367;SDS011;50692;53.314;-6.300;2022-11-12T12:42:04;4.38;;;1.73;;
64367;SDS011;50692;53.314;-6.300;2022-11-12T12:45:01;5.57;;;2.08;;
64367;SDS011;50692;53.314;-6.300;2022-11-12T12:48:04;2.92;;;1.80;;
64367;SDS011;50692;53.314;-6.300;2022-11-12T12:50:55;3.88;;;2.05;;
64367;SDS011;50692;53.314;-6.300;2022-11-12T12:53:41;2.83;;;1.80;;
64367;SDS011;50692;53.314;-6.300;2022-11-12T12:59:20;3.08;;;1.83;;
64367;SDS011;50692;53.314;-6.300;2022-11-12T13:02:21;5.32;;;1.95;;
64367;SDS011;50692;53.314;-6.300;2022-11-12T13:08:23;4.63;;;2.42;;
64367;SDS011;50692;53.314;-6.300;2022-11-12T13:11:23;3.42;;;1.85;;
64367;SDS011;50692;53.314;-6.300;2022-11-12T13:14:49;3.58;;;1.95;;
64367;SDS011;50692;53.314;-6.300;2022-11-12T13:17:41;3.08;;;1.98;;
64367;SDS011;50692;53.314;-6.300;2022-11-12T13:20:30;2.35;;;1.95;;
64367;SDS011;50692;53.314;-6.300;2022-11-12T13:29:40;3.53;;;1.90;;
64367;SDS011;50692;53.314;-6.300;2022-11-12T13:44:24;6.38;;;2.60;;
64367;SDS011;50692;53.314;-6.300;2022-11-12T13:47:12;4.72;;;2.35;;
64367;SDS011;50692;53.314;-6.300;2022-11-12T13:50:02;5.00;;;2.28;;
64367;SDS011;50692;53.314;-6.300;2022-11-12T13:52:52;3.63;;;2.40;;
64367;SDS011;50692;53.314;-6.300;2022-11-12T13:55:46;6.75;;;2.50;;
64367;SDS011;50692;53.314;-6.300;2022-11-12T13:58:34;5.68;;;2.85;;
64367;SDS011;50692;53.314;-6.300;2022-11-12T14:01:21;5.20;;;2.50;;
64367;SDS011;50692;53.314;-6.300;2022-11-12T14:04:12;9.82;;;3.10;;
64367;SDS011;50692;53.314;-6.300;2022-11-12T14:07:06;5.38;;;3.58;;
64367;SDS011;50692;53.314;-6.300;2022-11-12T14:22:18;6.70;;;2.67;;
64367;SDS011;50692;53.314;-6.300;2022-11-12T14:31:11;5.88;;;2.60;;
64367;SDS011;50692;53.314;-6.300;2022-11-12T14:34:18;4.07;;;2.42;;
64367;SDS011;50692;53.314;-6.300;2022-11-12T14:37:04;5.18;;;3.38;;
64367;SDS011;50692;53.314;-6.300;2022-11-12T14:39:59;5.07;;;2.75;;
64367;SDS011;50692;53.314;-6.300;2022-11-12T14:42:45;4.10;;;2.50;;
64367;SDS011;50692;53.314;-6.300;2022-11-12T14:45:31;6.63;;;3.00;;
64367;SDS011;50692;53.314;-6.300;2022-11-12T14:48:17;3.95;;;3.10;;
64367;SDS011;50692;53.314;-6.300;2022-11-12T14:51:04;5.78;;;2.95;;
64367;SDS011;50692;53.314;-6.300;2022-11-12T14:53:56;5.97;;;3.45;;
64367;SDS011;50692;53.314;-6.300;2022-11-12T14:56:44;4.70;;;3.42;;
64367;SDS011;50692;53.314;-6.300;2022-11-12T14:59:32;4.57;;;2.95;;
64367;SDS011;50692;53.314;-6.300;2022-11-12T15:02:22;6.60;;;3.30;;
64367;SDS011;50692;53.314;-6.300;2022-11-12T15:05:13;4.60;;;3.05;;
64367;SDS011;50692;53.314;-6.300;2022-11-12T15:08:03;4.38;;;3.63;;
64367;SDS011;50692;53.314;-6.300;2022-11-12T15:10:50;4.60;;;2.78;;
64367;SDS011;50692;53.314;-6.300;2022-11-12T15:13:36;5.28;;;3.35;;
64367;SDS011;50692;53.314;-6.300;2022-11-12T15:16:25;6.47;;;3.00;;
64367;SDS011;50692;53.314;-6.300;2022-11-12T15:22:15;5.57;;;1.83;;
64367;SDS011;50692;53.314;-6.300;2022-11-12T15:25:11;4.88;;;2.83;;
64367;SDS011;50692;53.314;-6.300;2022-11-12T15:28:38;3.58;;;2.47;;
64367;SDS011;50692;53.314;-6.300;2022-11-12T15:31:18;4.97;;;2.67;;
64367;SDS011;50692;53.314;-6.300;2022-11-12T15:37:26;6.30;;;2.38;;
64367;SDS011;50692;53.314;-6.300;2022-11-12T15:40:16;3.35;;;2.92;;
64367;SDS011;50692;53.314;-6.300;2022-11-12T15:43:09;6.07;;;2.90;;
64367;SDS011;50692;53.314;-6.300;2022-11-12T15:46:09;4.63;;;2.75;;
64367;SDS011;50692;53.314;-6.300;2022-11-12T15:48:59;3.38;;;2.55;;
64367;SDS011;50692;53.314;-6.300;2022-11-12T15:51:45;7.07;;;3.10;;
64367;SDS011;50692;53.314;-6.300;2022-11-12T15:54:30;3.80;;;2.70;;
64367;SDS011;50692;53.314;-6.300;2022-11-12T15:57:24;4.03;;;2.92;;
64367;SDS011;50692;53.314;-6.300;2022-11-12T16:00:13;5.03;;;3.28;;
64367;SDS011;50692;53.314;-6.300;2022-11-12T16:03:15;4.60;;;2.75;;
64367;SDS011;50692;53.314;-6.300;2022-11-12T16:06:03;2.90;;;2.50;;
64367;SDS011;50692;53.314;-6.300;2022-11-12T16:08:48;4.68;;;2.70;;
64367;SDS011;50692;53.314;-6.300;2022-11-12T16:11:35;4.95;;;2.97;;
64367;SDS011;50692;53.314;-6.300;2022-11-12T16:14:21;5.22;;;2.83;;
64367;SDS011;50692;53.314;-6.300;2022-11-12T16:17:10;5.60;;;3.70;;
64367;SDS011;50692;53.314;-6.300;2022-11-12T16:20:01;6.65;;;3.13;;
64367;SDS011;50692;53.314;-6.300;2022-11-12T16:22:47;2.80;;;2.40;;
64367;SDS011;50692;53.314;-6.300;2022-11-12T16:25:34;5.03;;;3.28;;
64367;SDS011;50692;53.314;-6.300;2022-11-12T16:28:21;6.72;;;3.40;;
64367;SDS011;50692;53.314;-6.300;2022-11-12T16:31:07;4.32;;;2.70;;
64367;SDS011;50692;53.314;-6.300;2022-11-12T16:33:53;3.50;;;2.40;;
64367;SDS011;50692;53.314;-6.300;2022-11-12T16:36:38;5.65;;;3.08;;
64367;SDS011;50692;53.314;-6.300;2022-11-12T16:39:24;5.07;;;3.13;;
64367;SDS011;50692;53.314;-6.300;2022-11-12T16:42:10;6.53;;;3.00;;
64367;SDS011;50692;53.314;-6.300;2022-11-12T16:44:56;7.80;;;3.33;;
64367;SDS011;50692;53.314;-6.300;2022-11-12T16:47:43;5.82;;;3.28;;
64367;SDS011;50692;53.314;-6.300;2022-11-12T16:50:30;6.28;;;3.03;;
64367;SDS011;50692;53.314;-6.300;2022-11-12T16:53:16;4.07;;;3.10;;
64367;SDS011;50692;53.314;-6.300;2022-11-12T16:56:02;7.63;;;3.80;;
64367;SDS011;50692;53.314;-6.300;2022-11-12T16:58:48;5.90;;;3.60;;
64367;SDS011;50692;53.314;-6.300;2022-11-12T17:01:34;3.30;;;2.47;;
64367;SDS011;50692;53.314;-6.300;2022-11-12T17:04:22;4.65;;;3.30;;
64367;SDS011;50692;53.314;-6.300;2022-11-12T17:07:08;7.65;;;3.35;;
64367;SDS011;50692;53.314;-6.300;2022-11-12T17:09:54;5.30;;;3.30;;
64367;SDS011;50692;53.314;-6.300;2022-11-12T17:12:40;5.25;;;3.60;;
64367;SDS011;50692;53.314;-6.300;2022-11-12T17:15:26;7.53;;;3.15;;
64367;SDS011;50692;53.314;-6.300;2022-11-12T17:18:12;4.88;;;3.20;;
64367;SDS011;50692;53.314;-6.300;2022-11-12T17:21:05;4.75;;;3.20;;
64367;SDS011;50692;53.314;-6.300;2022-11-12T17:23:59;4.97;;;3.15;;
64367;SDS011;50692;53.314;-6.300;2022-11-12T17:26:45;7.72;;;3.80;;
64367;SDS011;50692;53.314;-6.300;2022-11-12T17:29:31;5.63;;;3.90;;
64367;SDS011;50692;53.314;-6.300;2022-11-12T17:32:17;6.13;;;4.00;;
64367;SDS011;50692;53.314;-6.300;2022-11-12T17:35:03;5.25;;;3.63;;
64367;SDS011;50692;53.314;-6.300;2022-11-12T17:37:49;7.55;;;4.18;;
64367;SDS011;50692;53.314;-6.300;2022-11-12T17:40:35;6.70;;;4.50;;
64367;SDS011;50692;53.314;-6.300;2022-11-12T17:43:21;7.57;;;4.30;;
64367;SDS011;50692;53.314;-6.300;2022-11-12T17:46:07;7.38;;;3.78;;
64367;SDS011;50692;53.314;-6.300;2022-11-12T17:48:54;5.97;;;3.60;;
64367;SDS011;50692;53.314;-6.300;2022-11-12T17:51:40;7.10;;;4.07;;
64367;SDS011;50692;53.314;-6.300;2022-11-12T17:54:26;8.65;;;4.10;;
64367;SDS011;50692;53.314;-6.300;2022-11-12T17:57:12;6.45;;;4.03;;
64367;SDS011;50692;53.314;-6.300;2022-11-12T17:59:58;6.40;;;3.70;;
64367;SDS011;50692;53.314;-6.300;2022-11-12T18:02:44;6.00;;;3.80;;
64367;SDS011;50692;53.314;-6.300;2022-11-12T18:05:29;5.95;;;3.95;;
64367;SDS011;50692;53.314;-6.300;2022-11-12T18:08:15;8.63;;;4.10;;
64367;SDS011;50692;53.314;-6.300;2022-11-12T18:11:01;5.97;;;3.85;;
64367;SDS011;50692;53.314;-6.300;2022-11-12T18:13:47;6.55;;;3.53;;
64367;SDS011;50692;53.314;-6.300;2022-11-12T18:16:33;5.70;;;3.72;;
64367;SDS011;50692;53.314;-6.300;2022-11-12T18:19:19;6.63;;;4.55;;
64367;SDS011;50692;53.314;-6.300;2022-11-12T18:22:05;9.35;;;4.35;;
64367;SDS011;50692;53.314;-6.300;2022-11-12T18:24:51;7.93;;;4.88;;
64367;SDS011;50692;53.314;-6.300;2022-11-12T18:27:37;7.25;;;5.15;;
64367;SDS011;50692;53.314;-6.300;2022-11-12T18:30:23;7.28;;;4.45;;
64367;SDS011;50692;53.314;-6.300;2022-11-12T18:33:08;8.50;;;4.30;;
64367;SDS011;50692;53.314;-6.300;2022-11-12T18:36:09;5.47;;;3.55;;
64367;SDS011;50692;53.314;-6.300;2022-11-12T18:38:56;9.30;;;4.80;;